createdAt,value
2023-05-15T00:00:13.792Z,7.00
2023-05-15T00:03:05.155Z,6.10
2023-05-15T00:05:34.621Z,5.10
2023-05-15T00:08:04.327Z,6.00
2023-05-15T00:10:33.530Z,6.40
2023-05-15T00:13:02.823Z,5.30
2023-05-15T00:15:32.352Z,4.80
2023-05-15T00:18:01.779Z,6.10
2023-05-15T00:20:31.339Z,5.10
2023-05-15T00:23:00.793Z,5.80
2023-05-15T00:25:29.938Z,5.90
2023-05-15T00:27:59.544Z,5.90
2023-05-15T00:30:28.847Z,5.40
2023-05-15T00:32:57.999Z,6.40
2023-05-15T00:35:27.359Z,6.10
2023-05-15T00:37:56.751Z,5.20
2023-05-15T00:40:28.001Z,4.90
2023-05-15T00:42:58.350Z,5.70
2023-05-15T00:45:29.381Z,5.80
2023-05-15T00:48:01.037Z,5.00
2023-05-15T00:50:32.928Z,5.10
2023-05-15T00:53:04.031Z,6.70
2023-05-15T00:55:35.448Z,5.30
2023-05-15T00:58:05.600Z,6.20
2023-05-15T01:00:35.242Z,6.10
2023-05-15T01:03:06.682Z,6.30
2023-05-15T01:05:36.060Z,6.30
2023-05-15T01:08:27.350Z,5.90
2023-05-15T01:10:58.529Z,6.50
2023-05-15T01:13:28.235Z,5.50
2023-05-15T01:15:59.296Z,6.30
2023-05-15T01:18:32.770Z,7.10
2023-05-15T01:21:03.173Z,6.10
2023-05-15T01:23:42.727Z,5.70
2023-05-15T01:27:09.694Z,6.30
2023-05-15T01:30:08.396Z,5.90
2023-05-15T01:33:21.315Z,6.80
2023-05-15T01:36:07.640Z,6.90
2023-05-15T01:39:05.191Z,6.20
2023-05-15T01:41:59.149Z,5.40
2023-05-15T01:44:32.774Z,5.50
2023-05-15T01:47:14.620Z,5.70
2023-05-15T01:49:45.792Z,5.40
2023-05-15T01:52:29.325Z,5.80
2023-05-15T01:55:02.189Z,5.50
2023-05-15T01:57:32.437Z,5.10
2023-05-15T02:00:03.326Z,5.70
2023-05-15T02:02:45.184Z,5.90
2023-05-15T02:05:15.400Z,6.00
2023-05-15T02:07:46.113Z,5.10
2023-05-15T02:10:18.512Z,5.10
2023-05-15T02:12:51.470Z,6.10
2023-05-15T02:15:25.159Z,6.70
2023-05-15T02:17:55.435Z,6.00
2023-05-15T02:20:24.914Z,6.00
2023-05-15T02:22:54.181Z,6.90
2023-05-15T02:25:39.078Z,6.10
2023-05-15T02:28:17.383Z,5.80
2023-05-15T02:31:08.501Z,7.50
2023-05-15T02:33:58.111Z,6.20
2023-05-15T02:36:34.155Z,6.00
2023-05-15T02:39:03.850Z,6.20
2023-05-15T02:41:35.567Z,6.60
2023-05-15T02:44:06.361Z,6.30
2023-05-15T02:46:37.478Z,6.70
2023-05-15T02:49:07.311Z,7.80
2023-05-15T02:51:37.436Z,8.20
2023-05-15T02:54:08.979Z,6.60
2023-05-15T02:56:38.370Z,6.40
2023-05-15T02:59:07.868Z,5.90
2023-05-15T03:01:37.321Z,4.80
2023-05-15T03:04:06.728Z,4.80
2023-05-15T03:06:36.389Z,5.30
2023-05-15T03:09:05.690Z,6.60
2023-05-15T03:11:35.716Z,6.10
2023-05-15T03:14:05.128Z,6.10
2023-05-15T03:16:34.333Z,6.60
2023-05-15T03:19:04.136Z,7.20
2023-05-15T03:21:35.264Z,7.60
2023-05-15T03:24:04.775Z,7.30
2023-05-15T03:26:34.892Z,7.10
2023-05-15T03:29:04.307Z,7.20
2023-05-15T03:31:34.144Z,7.50
2023-05-15T03:34:03.487Z,7.30
2023-05-15T03:36:32.791Z,7.40
2023-05-15T03:39:02.222Z,6.50
2023-05-15T03:41:31.618Z,6.20
2023-05-15T03:44:02.760Z,7.40
2023-05-15T03:46:32.187Z,7.00
2023-05-15T03:49:01.369Z,7.50
2023-05-15T03:51:30.765Z,7.60
2023-05-15T03:54:00.274Z,7.70
2023-05-15T03:56:29.601Z,7.10
2023-05-15T03:58:59.689Z,7.00
2023-05-15T04:01:29.003Z,7.10
2023-05-15T04:03:58.365Z,7.30
2023-05-15T04:06:27.694Z,8.00
2023-05-15T04:08:57.204Z,7.00
2023-05-15T04:11:27.127Z,7.50
2023-05-15T04:13:56.322Z,7.50
2023-05-15T04:16:25.566Z,6.30
2023-05-15T04:18:54.795Z,7.30
2023-05-15T04:21:23.991Z,6.80
2023-05-15T04:23:53.517Z,6.00
2023-05-15T04:26:22.588Z,5.70
2023-05-15T04:29:02.893Z,5.80
2023-05-15T04:31:33.243Z,5.80
2023-05-15T04:34:04.337Z,5.70
2023-05-15T04:36:34.268Z,4.60
2023-05-15T04:39:04.070Z,5.20
2023-05-15T04:41:33.471Z,4.70
2023-05-15T04:44:02.726Z,6.70
2023-05-15T04:46:34.969Z,5.50
2023-05-15T04:49:04.446Z,4.80
2023-05-15T04:51:33.648Z,4.20
2023-05-15T04:54:03.458Z,5.50
2023-05-15T04:56:33.075Z,4.70
2023-05-15T04:59:02.567Z,5.70
2023-05-15T05:01:31.785Z,5.40
2023-05-15T05:04:01.384Z,4.90
2023-05-15T05:06:31.187Z,5.50
2023-05-15T05:09:00.512Z,6.40
2023-05-15T05:11:30.644Z,5.80
2023-05-15T05:14:00.358Z,6.20
2023-05-15T05:16:29.769Z,6.30
2023-05-15T05:18:59.089Z,8.60
2023-05-15T05:21:28.844Z,7.80
2023-05-15T05:23:58.241Z,6.40
2023-05-15T05:26:27.961Z,6.20
2023-05-15T05:28:57.582Z,5.80
2023-05-15T05:31:27.109Z,5.30
2023-05-15T05:33:56.372Z,5.40
2023-05-15T05:36:25.633Z,4.70
2023-05-15T05:38:54.972Z,4.20
2023-05-15T05:41:24.378Z,4.50
2023-05-15T05:43:53.573Z,4.60
2023-05-15T05:46:22.952Z,4.30
2023-05-15T05:48:52.177Z,3.70
2023-05-15T05:51:21.669Z,4.80
2023-05-15T05:53:50.877Z,4.00
2023-05-15T05:56:21.837Z,4.50
2023-05-15T05:58:54.184Z,3.50
2023-05-15T06:01:23.590Z,3.80
2023-05-15T06:03:52.978Z,4.10
2023-05-15T06:06:22.693Z,4.10
2023-05-15T06:08:54.186Z,3.80
2023-05-15T06:11:25.598Z,3.20
2023-05-15T06:13:55.111Z,3.10
2023-05-15T06:16:24.463Z,3.50
2023-05-15T06:18:53.824Z,2.70
2023-05-15T06:21:22.904Z,3.20
2023-05-15T06:23:52.204Z,2.80
2023-05-15T06:26:22.305Z,2.80
2023-05-15T06:28:51.739Z,3.40
2023-05-15T06:31:21.597Z,2.60
2023-05-15T06:33:51.051Z,2.70
2023-05-15T06:36:20.354Z,3.50
2023-05-15T06:38:49.757Z,3.80
2023-05-15T06:41:19.980Z,3.50
2023-05-15T06:43:49.174Z,3.10
2023-05-15T06:46:19.398Z,3.30
2023-05-15T06:48:48.916Z,2.70
2023-05-15T06:51:18.614Z,3.30
2023-05-15T06:53:47.817Z,2.50
2023-05-15T06:56:17.122Z,2.50
2023-05-15T06:58:46.721Z,3.40
2023-05-15T07:01:15.979Z,2.60
2023-05-15T07:03:45.945Z,2.50
2023-05-15T07:06:15.862Z,2.20
2023-05-15T07:08:45.153Z,3.10
2023-05-15T07:11:14.328Z,2.60
2023-05-15T07:13:44.105Z,3.10
2023-05-15T07:16:13.276Z,2.80
2023-05-15T07:18:42.789Z,2.30
2023-05-15T07:21:12.352Z,2.60
2023-05-15T07:23:41.628Z,2.60
2023-05-15T07:26:16.922Z,2.40
2023-05-15T07:28:49.861Z,2.70
2023-05-15T07:31:19.226Z,3.20
2023-05-15T07:33:48.613Z,2.80
2023-05-15T07:36:17.681Z,2.50
2023-05-15T07:38:47.009Z,2.60
2023-05-15T07:41:16.406Z,2.00
2023-05-15T07:43:45.513Z,2.10
2023-05-15T07:46:14.895Z,3.10
2023-05-15T07:48:44.326Z,2.50
2023-05-15T07:51:13.612Z,2.30
2023-05-15T07:53:43.254Z,2.40
2023-05-15T07:56:12.504Z,2.30
2023-05-15T07:58:42.535Z,2.90
2023-05-15T08:01:12.175Z,2.10
2023-05-15T08:03:41.568Z,2.50
2023-05-15T08:06:11.152Z,2.00
2023-05-15T08:08:40.764Z,2.30
2023-05-15T08:11:09.979Z,2.20
2023-05-15T08:13:39.389Z,2.60
2023-05-15T08:16:08.804Z,2.70
2023-05-15T08:18:38.839Z,2.20
2023-05-15T08:21:08.388Z,2.40
2023-05-15T08:23:37.791Z,3.00
2023-05-15T08:26:06.990Z,2.90
2023-05-15T08:28:36.394Z,2.10
2023-05-15T08:31:05.619Z,2.60
2023-05-15T08:33:34.728Z,2.00
2023-05-15T08:36:04.931Z,1.80
2023-05-15T08:38:34.378Z,2.40
2023-05-15T08:41:13.202Z,2.90
2023-05-15T08:43:43.054Z,2.00
2023-05-15T08:46:12.922Z,2.20
2023-05-15T08:48:43.670Z,1.90
2023-05-15T08:51:14.546Z,2.60
2023-05-15T08:53:44.557Z,2.40
2023-05-15T08:56:14.574Z,2.20
2023-05-15T08:58:44.601Z,2.50
2023-05-15T09:01:16.846Z,1.80
2023-05-15T09:03:47.321Z,2.30
2023-05-15T09:06:17.415Z,2.30
2023-05-15T09:08:47.536Z,2.10
2023-05-15T09:11:17.346Z,2.50
2023-05-15T09:13:46.439Z,1.90
2023-05-15T09:16:15.958Z,2.00
2023-05-15T09:18:46.138Z,2.20
2023-05-15T09:21:27.257Z,2.70
2023-05-15T09:24:17.931Z,2.50
2023-05-15T09:27:02.297Z,2.60
2023-05-15T09:29:33.217Z,2.40
2023-05-15T09:32:12.048Z,2.20
2023-05-15T09:34:44.335Z,2.30
2023-05-15T09:37:33.867Z,2.30
2023-05-15T09:40:11.399Z,2.10
2023-05-15T09:42:40.708Z,2.60
2023-05-15T09:45:18.710Z,2.10
2023-05-15T09:47:48.177Z,2.30
2023-05-15T09:50:23.551Z,2.30
2023-05-15T09:52:53.159Z,2.20
2023-05-15T09:55:23.357Z,2.70
2023-05-15T09:58:12.306Z,2.10
2023-05-15T10:00:47.996Z,2.70
2023-05-15T10:03:20.995Z,2.20
2023-05-15T10:05:50.948Z,2.20
2023-05-15T10:08:31.075Z,1.70
2023-05-15T10:11:03.624Z,2.60
2023-05-15T10:13:35.633Z,2.30
2023-05-15T10:16:06.017Z,2.20
2023-05-15T10:18:37.411Z,2.30
2023-05-15T10:21:09.723Z,1.90
2023-05-15T10:23:41.458Z,1.80
2023-05-15T10:26:29.387Z,1.90
2023-05-15T10:29:01.179Z,1.70
2023-05-15T10:31:31.375Z,1.80
2023-05-15T10:34:01.748Z,1.60
2023-05-15T10:36:33.110Z,1.90
2023-05-15T10:39:05.414Z,2.50
2023-05-15T10:41:38.253Z,1.60
2023-05-15T10:44:07.939Z,2.00
2023-05-15T10:46:37.756Z,1.70
2023-05-15T10:49:07.383Z,1.80
2023-05-15T10:51:39.625Z,1.50
2023-05-15T10:54:09.962Z,1.60
2023-05-15T10:56:40.226Z,2.00
2023-05-15T10:59:11.936Z,2.00
2023-05-15T11:01:41.906Z,1.70
2023-05-15T11:04:17.580Z,1.80
2023-05-15T11:06:50.042Z,1.80
2023-05-15T11:09:27.493Z,1.70
2023-05-15T11:12:03.437Z,2.20
2023-05-15T11:14:40.904Z,2.00
2023-05-15T11:17:17.690Z,1.50
2023-05-15T11:19:49.889Z,1.90
2023-05-15T11:22:30.858Z,1.90
2023-05-15T11:25:12.612Z,1.60
2023-05-15T11:27:46.771Z,1.60
2023-05-15T11:30:22.045Z,1.90
2023-05-15T11:33:03.157Z,1.80
2023-05-15T11:35:35.556Z,1.30
2023-05-15T11:38:13.046Z,1.50
2023-05-15T11:41:03.092Z,2.10
2023-05-15T11:43:36.732Z,1.30
2023-05-15T11:46:10.763Z,1.90
2023-05-15T11:48:48.019Z,2.20
2023-05-15T11:51:21.846Z,1.60
2023-05-15T11:53:57.041Z,1.60
2023-05-15T11:56:30.460Z,1.30
2023-05-15T11:59:04.232Z,1.70
2023-05-15T12:01:47.477Z,1.60
2023-05-15T12:04:18.913Z,1.50
2023-05-15T12:06:49.734Z,2.00
2023-05-15T12:09:19.670Z,2.00
2023-05-15T12:11:53.920Z,1.80
2023-05-15T12:14:34.063Z,1.80
2023-05-15T12:17:06.670Z,1.80
2023-05-15T12:19:38.627Z,1.80
2023-05-15T12:22:08.661Z,2.10
2023-05-15T12:24:39.947Z,2.10
2023-05-15T12:27:10.120Z,1.80
2023-05-15T12:29:40.862Z,1.60
2023-05-15T12:32:10.900Z,1.90
2023-05-15T12:34:41.099Z,1.80
2023-05-15T12:37:14.597Z,1.30
2023-05-15T12:39:54.062Z,1.60
2023-05-15T12:42:23.866Z,1.70
2023-05-15T12:44:55.761Z,2.50
2023-05-15T12:47:27.454Z,1.80
2023-05-15T12:50:00.217Z,1.90
2023-05-15T12:52:29.757Z,1.80
2023-05-15T12:55:01.453Z,2.40
2023-05-15T12:57:30.883Z,1.70
2023-05-15T13:00:00.935Z,2.50
2023-05-15T13:02:31.246Z,1.80
2023-05-15T13:05:06.067Z,1.90
2023-05-15T13:07:36.254Z,1.80
2023-05-15T13:10:10.328Z,1.50
2023-05-15T13:12:46.054Z,2.20
2023-05-15T13:15:38.829Z,2.50
2023-05-15T13:18:14.083Z,2.20
2023-05-15T13:20:53.722Z,2.10
2023-05-15T13:23:25.554Z,2.00
2023-05-15T13:25:54.932Z,1.90
2023-05-15T13:28:24.672Z,2.60
2023-05-15T13:30:54.076Z,2.00
2023-05-15T13:33:23.274Z,2.40
2023-05-15T13:35:53.186Z,1.80
2023-05-15T13:38:22.493Z,1.80
2023-05-15T13:40:51.827Z,1.70
2023-05-15T13:43:21.196Z,2.50
2023-05-15T13:45:50.493Z,1.50
2023-05-15T13:48:19.597Z,1.70
2023-05-15T13:50:48.890Z,1.30
2023-05-15T13:53:18.913Z,2.00
2023-05-15T13:55:48.332Z,1.50
2023-05-15T13:58:17.617Z,1.30
2023-05-15T14:00:49.350Z,2.00
2023-05-15T14:03:18.855Z,2.70
2023-05-15T14:05:48.395Z,1.50
2023-05-15T14:08:17.582Z,1.60
2023-05-15T14:10:46.899Z,2.40
2023-05-15T14:13:16.089Z,2.00
2023-05-15T14:15:45.180Z,1.20
2023-05-15T14:18:14.396Z,1.80
2023-05-15T14:20:43.675Z,1.80
2023-05-15T14:23:12.772Z,2.20
2023-05-15T14:25:42.603Z,2.80
2023-05-15T14:28:12.932Z,2.00
2023-05-15T14:30:41.993Z,2.00
2023-05-15T14:33:11.351Z,1.80
2023-05-15T14:35:40.712Z,1.80
2023-05-15T14:38:09.914Z,2.10
2023-05-15T14:40:39.322Z,1.40
2023-05-15T14:43:08.937Z,2.10
2023-05-15T14:45:38.221Z,1.80
2023-05-15T14:48:07.609Z,1.80
2023-05-15T14:50:36.928Z,1.70
2023-05-15T14:53:06.218Z,1.90
2023-05-15T14:55:35.423Z,1.90
2023-05-15T14:58:04.724Z,1.80
2023-05-15T15:00:33.914Z,7.70
2023-05-15T15:03:03.374Z,2.40
2023-05-15T15:05:32.828Z,3.00
2023-05-15T15:08:09.621Z,2.60
2023-05-15T15:10:40.883Z,2.50
2023-05-15T15:13:11.898Z,2.30
2023-05-15T15:15:41.198Z,2.90
2023-05-15T15:18:10.835Z,1.80
2023-05-15T15:20:42.968Z,1.70
2023-05-15T15:23:12.176Z,2.20
2023-05-15T15:25:41.394Z,2.20
2023-05-15T15:28:10.769Z,2.40
2023-05-15T15:30:40.138Z,3.00
2023-05-15T15:33:09.555Z,3.70
2023-05-15T15:35:38.872Z,2.10
2023-05-15T15:38:10.329Z,3.10
2023-05-15T15:40:41.048Z,3.10
2023-05-15T15:43:10.495Z,2.90
2023-05-15T15:45:40.017Z,2.80
2023-05-15T15:48:09.464Z,3.20
2023-05-15T15:50:38.881Z,3.10
2023-05-15T15:53:08.056Z,3.30
2023-05-15T15:55:37.254Z,3.10
2023-05-15T15:58:06.510Z,3.40
2023-05-15T16:00:37.560Z,2.60
2023-05-15T16:03:07.665Z,4.20
2023-05-15T16:05:37.452Z,3.10
2023-05-15T16:08:06.766Z,3.90
2023-05-15T16:10:35.953Z,2.80
2023-05-15T16:13:05.357Z,4.00
2023-05-15T16:15:34.763Z,4.40
2023-05-15T16:18:04.198Z,4.10
2023-05-15T16:20:35.269Z,2.90
2023-05-15T16:23:04.934Z,4.30
2023-05-15T16:25:34.161Z,2.70
2023-05-15T16:28:03.416Z,3.00
2023-05-15T16:30:47.272Z,2.60
2023-05-15T16:33:18.915Z,2.80
2023-05-15T16:35:48.309Z,2.70
2023-05-15T16:38:18.434Z,3.40
2023-05-15T16:40:47.836Z,3.40
2023-05-15T16:43:17.445Z,2.60
2023-05-15T16:45:46.628Z,2.80
2023-05-15T16:48:15.903Z,2.30
2023-05-15T16:50:45.241Z,3.70
2023-05-15T16:53:15.402Z,2.90
2023-05-15T16:55:45.795Z,2.40
2023-05-15T16:58:15.812Z,3.20
2023-05-15T17:00:45.010Z,2.60
2023-05-15T17:03:14.551Z,2.30
2023-05-15T17:05:43.914Z,3.30
2023-05-15T17:08:13.218Z,2.50
2023-05-15T17:10:42.540Z,3.20
2023-05-15T17:13:11.818Z,2.70
2023-05-15T17:15:40.841Z,2.50
2023-05-15T17:18:10.244Z,3.20
2023-05-15T17:20:39.505Z,3.20
2023-05-15T17:23:08.737Z,4.10
2023-05-15T17:25:38.010Z,3.50
2023-05-15T17:28:07.319Z,3.40
2023-05-15T17:30:36.539Z,3.70
2023-05-15T17:33:05.770Z,3.50
2023-05-15T17:35:34.924Z,3.10
2023-05-15T17:38:04.305Z,3.20
2023-05-15T17:40:34.126Z,4.30
2023-05-15T17:43:03.948Z,3.40
2023-05-15T17:45:33.232Z,4.80
2023-05-15T17:48:03.674Z,3.80
2023-05-15T17:50:35.355Z,3.20
2023-05-15T17:53:05.930Z,3.70
2023-05-15T17:55:35.533Z,3.50
2023-05-15T17:58:04.810Z,3.10
2023-05-15T18:00:34.179Z,3.10
2023-05-15T18:03:03.963Z,4.20
2023-05-15T18:05:33.281Z,4.10
2023-05-15T18:08:03.809Z,3.40
2023-05-15T18:10:32.921Z,3.80
2023-05-15T18:13:02.202Z,4.00
2023-05-15T18:15:32.626Z,3.70
2023-05-15T18:18:02.764Z,3.70
2023-05-15T18:20:32.066Z,3.90
2023-05-15T18:23:01.273Z,4.40
2023-05-15T18:25:31.570Z,5.30
2023-05-15T18:28:00.970Z,4.30
2023-05-15T18:30:30.895Z,4.70
2023-05-15T18:33:00.339Z,4.00
2023-05-15T18:35:29.830Z,6.20
2023-05-15T18:37:59.199Z,5.30
2023-05-15T18:40:28.607Z,5.10
2023-05-15T18:42:58.436Z,4.20
2023-05-15T18:45:27.734Z,4.40
2023-05-15T18:47:57.415Z,3.40
2023-05-15T18:50:26.929Z,3.30
2023-05-15T18:52:56.240Z,3.20
2023-05-15T18:55:27.689Z,3.70
2023-05-15T18:57:57.195Z,3.60
2023-05-15T19:00:37.288Z,2.50
2023-05-15T19:03:09.025Z,5.80
2023-05-15T19:05:38.427Z,4.90
2023-05-15T19:08:07.816Z,4.40
2023-05-15T19:10:37.017Z,3.30
2023-05-15T19:13:06.416Z,4.80
2023-05-15T19:15:35.912Z,4.40
2023-05-15T19:18:05.558Z,3.00
2023-05-15T19:20:34.832Z,3.10
2023-05-15T19:23:03.919Z,2.90
2023-05-15T19:25:33.118Z,4.10
2023-05-15T19:28:02.544Z,3.60
2023-05-15T19:30:32.135Z,3.00
2023-05-15T19:33:01.444Z,3.30
2023-05-15T19:35:30.833Z,3.50
2023-05-15T19:38:00.155Z,3.40
2023-05-15T19:40:29.587Z,4.50
2023-05-15T19:42:58.846Z,4.60
2023-05-15T19:45:29.646Z,4.20
2023-05-15T19:48:00.574Z,3.50
2023-05-15T19:50:31.413Z,4.20
2023-05-15T19:53:01.951Z,3.30
2023-05-15T19:55:31.368Z,4.20
2023-05-15T19:58:01.090Z,3.20
2023-05-15T20:00:30.394Z,3.60
2023-05-15T20:03:01.192Z,4.90
2023-05-15T20:05:30.523Z,5.80
2023-05-15T20:07:59.928Z,3.90
2023-05-15T20:10:29.441Z,3.80
2023-05-15T20:12:59.256Z,3.20
2023-05-15T20:15:29.512Z,4.00
2023-05-15T20:17:59.430Z,4.20
2023-05-15T20:20:29.109Z,3.40
2023-05-15T20:22:58.705Z,4.50
2023-05-15T20:25:29.968Z,4.40
2023-05-15T20:28:01.014Z,4.30
2023-05-15T20:30:30.283Z,3.90
2023-05-15T20:32:59.574Z,3.50
2023-05-15T20:35:30.044Z,3.80
2023-05-15T20:37:59.636Z,3.90
2023-05-15T20:40:29.357Z,3.20
2023-05-15T20:42:59.328Z,3.60
2023-05-15T20:45:29.170Z,4.30
2023-05-15T20:47:58.723Z,3.50
2023-05-15T20:50:28.530Z,4.00
2023-05-15T20:52:58.400Z,4.20
2023-05-15T20:55:27.914Z,3.70
2023-05-15T20:57:57.314Z,4.00
2023-05-15T21:00:27.193Z,4.50
2023-05-15T21:02:56.949Z,4.70
2023-05-15T21:05:26.761Z,3.90
2023-05-15T21:07:56.154Z,4.70
2023-05-15T21:10:25.732Z,4.60
2023-05-15T21:12:56.511Z,4.30
2023-05-15T21:15:27.230Z,4.10
2023-05-15T21:17:56.918Z,4.20
2023-05-15T21:20:27.425Z,3.40
2023-05-15T21:22:57.284Z,4.30
2023-05-15T21:25:27.117Z,4.00
2023-05-15T21:27:56.619Z,4.10
2023-05-15T21:30:26.154Z,3.90
2023-05-15T21:32:55.741Z,4.10
2023-05-15T21:35:25.731Z,4.00
2023-05-15T21:37:55.564Z,4.50
2023-05-15T21:40:25.014Z,3.80
2023-05-15T21:42:54.460Z,4.00
2023-05-15T21:45:23.662Z,4.80
2023-05-15T21:47:53.412Z,4.50
2023-05-15T21:50:22.872Z,3.60
2023-05-15T21:52:52.300Z,4.30
2023-05-15T21:55:21.606Z,4.20
2023-05-15T21:57:51.075Z,4.00
2023-05-15T22:00:20.995Z,5.00
2023-05-15T22:02:50.215Z,4.20
2023-05-15T22:05:19.488Z,5.60
2023-05-15T22:07:48.796Z,4.40
2023-05-15T22:10:17.987Z,4.40
2023-05-15T22:12:47.326Z,4.70
2023-05-15T22:15:25.808Z,4.50
2023-05-15T22:17:55.184Z,4.80
2023-05-15T22:20:25.130Z,4.70
2023-05-15T22:22:54.733Z,4.60
2023-05-15T22:25:24.344Z,4.60
2023-05-15T22:27:53.548Z,5.00
2023-05-15T22:30:22.661Z,5.40
2023-05-15T22:32:52.082Z,4.80
2023-05-15T22:35:21.540Z,5.00
2023-05-15T22:37:51.050Z,5.40
2023-05-15T22:40:20.289Z,4.60
2023-05-15T22:42:50.475Z,4.70
2023-05-15T22:45:19.898Z,5.10
2023-05-15T22:47:49.758Z,5.00
2023-05-15T22:50:19.226Z,4.10
2023-05-15T22:52:48.441Z,4.20
2023-05-15T22:55:17.587Z,4.70
2023-05-15T22:57:46.972Z,4.90
2023-05-15T23:00:17.106Z,5.30
2023-05-15T23:02:46.345Z,4.40
2023-05-15T23:05:15.715Z,4.50
2023-05-15T23:08:12.866Z,4.40
2023-05-15T23:11:00.917Z,3.60
2023-05-15T23:13:30.203Z,4.40
2023-05-15T23:15:59.528Z,3.80
2023-05-15T23:18:28.867Z,4.30
2023-05-15T23:20:58.314Z,4.00
2023-05-15T23:23:28.387Z,4.70
2023-05-15T23:25:57.562Z,4.10
2023-05-15T23:28:27.154Z,4.60
2023-05-15T23:30:56.870Z,4.00
2023-05-15T23:33:26.252Z,4.10
2023-05-15T23:35:55.563Z,4.40
2023-05-15T23:38:24.881Z,4.30
2023-05-15T23:40:54.159Z,4.00
2023-05-15T23:43:23.764Z,4.20
2023-05-15T23:45:53.064Z,4.60
2023-05-15T23:48:22.163Z,4.40
2023-05-15T23:50:52.561Z,4.80
2023-05-15T23:53:22.124Z,6.00
2023-05-15T23:55:51.398Z,4.90
2023-05-15T23:58:21.614Z,5.00
